Time;durP1;ratioP1;P1;durP2;ratioP2;P2;SDS_P1;SDS_P2;PMS_P1;PMS_P2;Temp;Humidity;BMP_temperature;BMP_pressure;BME280_temperature;BME280_humidity;BME280_pressure;Samples;Min_cycle;Max_cycle;Signal;HPM_P1;HPM_P2
2022/01/21 00:00:21;;;;;;;68.82;5.47;;;;;;;;;;5115985;28;20263;-70
2022/01/21 00:02:48;;;;;;;61.03;5.20;;;;;;;;;;5132464;28;20243;-70
2022/01/21 00:05:15;;;;;;;59.80;4.43;;;;;;;;;;5132811;28;20207;-70
2022/01/21 00:07:43;;;;;;;63.53;5.57;;;;;;;;;;5131344;28;20378;-70
2022/01/21 00:10:10;;;;;;;61.22;5.03;;;;;;;;;;5127883;28;20219;-70
2022/01/21 00:12:37;;;;;;;60.50;5.03;;;;;;;;;;5131081;28;20216;-70
2022/01/21 00:15:07;;;;;;;60.95;5.22;;;;;;;;;;5133365;28;20200;-70
2022/01/21 00:17:34;;;;;;;61.22;4.80;;;;;;;;;;5132510;28;20204;-70
2022/01/21 00:30:54;;;;;;;60.90;4.68;;;;;;;;;;5077974;28;20200;-70
2022/01/21 00:33:21;;;;;;;61.58;4.75;;;;;;;;;;5112050;28;20224;-70
2022/01/21 00:35:48;;;;;;;60.55;5.32;;;;;;;;;;5112535;28;20212;-70
2022/01/21 00:38:16;;;;;;;63.63;5.65;;;;;;;;;;5112258;28;20228;-70
2022/01/21 00:40:43;;;;;;;60.25;4.55;;;;;;;;;;5112120;28;20293;-70
2022/01/21 00:43:16;;;;;;;61.72;5.15;;;;;;;;;;5111681;28;20224;-70
2022/01/21 00:45:44;;;;;;;61.72;5.57;;;;;;;;;;5110372;28;20299;-71
2022/01/21 00:48:12;;;;;;;68.95;5.50;;;;;;;;;;5111854;28;20603;-70
2022/01/21 00:50:39;;;;;;;60.95;5.65;;;;;;;;;;5112167;28;20204;-70
2022/01/21 00:53:06;;;;;;;62.78;5.63;;;;;;;;;;5112073;28;20273;-70
2022/01/21 00:55:34;;;;;;;64.18;5.55;;;;;;;;;;5112093;28;20300;-71
2022/01/21 00:58:01;;;;;;;61.75;5.60;;;;;;;;;;5111535;28;20204;-71
2022/01/21 01:00:28;;;;;;;73.93;5.72;;;;;;;;;;5112124;28;20295;-70
2022/01/21 01:02:55;;;;;;;62.00;5.65;;;;;;;;;;5112133;28;20615;-69
2022/01/21 01:05:24;;;;;;;60.33;4.80;;;;;;;;;;5111779;28;20295;-69
2022/01/21 01:07:53;;;;;;;66.45;5.43;;;;;;;;;;5111427;28;20224;-69
2022/01/21 01:10:24;;;;;;;60.58;4.88;;;;;;;;;;5111749;28;20207;-69
2022/01/21 01:13:00;;;;;;;60.22;4.88;;;;;;;;;;5111847;28;20315;-70
2022/01/21 01:21:03;;;;;;;59.58;4.30;;;;;;;;;;5053868;28;20198;-70
2022/01/21 01:23:39;;;;;;;66.50;5.25;;;;;;;;;;5111654;28;20251;-69
2022/01/21 01:28:51;;;;;;;65.25;5.10;;;;;;;;;;5115640;28;20242;-70
2022/01/21 01:31:18;;;;;;;66.53;4.95;;;;;;;;;;5115298;28;20295;-70
2022/01/21 01:33:45;;;;;;;64.25;5.20;;;;;;;;;;5115195;28;20310;-69
2022/01/21 01:36:14;;;;;;;66.72;5.30;;;;;;;;;;5115540;28;20302;-70
2022/01/21 01:39:00;;;;;;;62.03;5.65;;;;;;;;;;5115111;27;20204;-70
2022/01/21 01:41:33;;;;;;;63.17;4.90;;;;;;;;;;5115131;28;20207;-70
2022/01/21 01:49:32;;;;;;;64.40;5.50;;;;;;;;;;5103399;28;20571;-70
2022/01/21 01:52:01;;;;;;;70.10;5.30;;;;;;;;;;5094667;28;20225;-70
2022/01/21 01:54:30;;;;;;;60.92;5.10;;;;;;;;;;5094423;28;20201;-70
2022/01/21 01:56:58;;;;;;;61.38;5.07;;;;;;;;;;5094668;28;20232;-70
2022/01/21 01:59:25;;;;;;;61.78;5.38;;;;;;;;;;5094376;28;20197;-70
2022/01/21 02:01:53;;;;;;;64.50;5.00;;;;;;;;;;5094787;28;20584;-70
2022/01/21 02:04:21;;;;;;;61.95;5.03;;;;;;;;;;5094301;28;20213;-70
2022/01/21 02:06:49;;;;;;;61.40;4.32;;;;;;;;;;5094126;28;20272;-70
2022/01/21 02:09:17;;;;;;;61.38;4.88;;;;;;;;;;5094574;28;20229;-70
2022/01/21 02:11:45;;;;;;;65.28;5.38;;;;;;;;;;5094496;28;20201;-70
2022/01/21 02:14:16;;;;;;;63.20;6.20;;;;;;;;;;5093249;28;20205;-69
2022/01/21 02:17:07;;;;;;;60.25;5.32;;;;;;;;;;5093603;28;20208;-69
2022/01/21 02:22:20;;;;;;;62.80;4.93;;;;;;;;;;5092936;28;20716;-69
2022/01/21 02:24:51;;;;;;;68.15;5.70;;;;;;;;;;5093764;28;20672;-69
2022/01/21 02:27:18;;;;;;;62.72;5.43;;;;;;;;;;5093812;28;20209;-69
2022/01/21 02:29:48;;;;;;;61.95;5.28;;;;;;;;;;5093731;28;20700;-69
2022/01/21 02:32:16;;;;;;;63.67;5.38;;;;;;;;;;5093816;28;20643;-69
2022/01/21 02:34:43;;;;;;;66.95;4.88;;;;;;;;;;5093766;28;20296;-70
2022/01/21 02:37:11;;;;;;;62.42;5.30;;;;;;;;;;5093464;28;20212;-70
2022/01/21 02:39:39;;;;;;;63.78;4.70;;;;;;;;;;5093400;28;20247;-70
2022/01/21 02:42:07;;;;;;;67.13;6.47;;;;;;;;;;5093926;28;20264;-70
2022/01/21 02:44:34;;;;;;;64.97;4.68;;;;;;;;;;5093589;28;20201;-70
2022/01/21 02:47:04;;;;;;;62.55;5.35;;;;;;;;;;5093514;28;20241;-70
2022/01/21 02:49:31;;;;;;;64.43;5.38;;;;;;;;;;5093222;28;20245;-70
2022/01/21 02:52:00;;;;;;;65.22;5.13;;;;;;;;;;5093061;28;20316;-69
2022/01/21 02:54:30;;;;;;;61.72;4.63;;;;;;;;;;5106576;28;20249;-70
2022/01/21 02:56:59;;;;;;;64.32;5.05;;;;;;;;;;5113844;28;20200;-69
2022/01/21 02:59:26;;;;;;;65.13;4.35;;;;;;;;;;5113566;28;20200;-70
2022/01/21 03:01:53;;;;;;;73.93;5.65;;;;;;;;;;5113592;28;20311;-69
2022/01/21 03:04:27;;;;;;;63.05;5.07;;;;;;;;;;5113119;28;20208;-70
2022/01/21 03:06:55;;;;;;;64.40;4.82;;;;;;;;;;5113634;28;20217;-69
2022/01/21 03:09:22;;;;;;;61.33;4.75;;;;;;;;;;5113368;28;20220;-69
2022/01/21 03:11:49;;;;;;;60.90;4.90;;;;;;;;;;5113404;28;20299;-69
2022/01/21 03:14:17;;;;;;;61.60;3.90;;;;;;;;;;5113518;28;20204;-69
2022/01/21 03:16:45;;;;;;;63.35;4.40;;;;;;;;;;5113387;28;20584;-69
2022/01/21 03:19:13;;;;;;;61.55;5.32;;;;;;;;;;5113273;28;20577;-69
2022/01/21 03:21:40;;;;;;;59.55;4.35;;;;;;;;;;5113137;28;20210;-69
2022/01/21 03:24:07;;;;;;;62.97;5.15;;;;;;;;;;5113124;28;20295;-69
2022/01/21 03:26:34;;;;;;;60.53;4.40;;;;;;;;;;5111939;28;20291;-69
2022/01/21 03:29:03;;;;;;;62.20;4.93;;;;;;;;;;5112856;28;20786;-69
2022/01/21 03:31:33;;;;;;;63.30;4.80;;;;;;;;;;5113236;28;20548;-69
2022/01/21 03:34:00;;;;;;;62.05;4.97;;;;;;;;;;5113419;28;20262;-69
2022/01/21 03:36:27;;;;;;;63.35;4.45;;;;;;;;;;5113240;28;20243;-69
2022/01/21 03:38:55;;;;;;;66.78;6.13;;;;;;;;;;5112703;28;20239;-70
2022/01/21 03:41:22;;;;;;;62.65;5.50;;;;;;;;;;5112906;28;20212;-69
2022/01/21 03:43:49;;;;;;;63.00;5.45;;;;;;;;;;5112691;28;20228;-69
2022/01/21 03:46:17;;;;;;;63.15;5.43;;;;;;;;;;5112844;28;20699;-70
2022/01/21 03:48:48;;;;;;;61.90;4.80;;;;;;;;;;5112734;28;20660;-69
2022/01/21 03:51:15;;;;;;;62.38;4.60;;;;;;;;;;5112364;28;20204;-69
2022/01/21 03:53:44;;;;;;;59.17;4.78;;;;;;;;;;5113077;28;20259;-69
2022/01/21 03:56:11;;;;;;;72.78;5.63;;;;;;;;;;5113013;28;20227;-69
2022/01/21 03:58:38;;;;;;;60.45;4.85;;;;;;;;;;5112472;28;20648;-70
2022/01/21 04:01:05;;;;;;;70.10;5.32;;;;;;;;;;5112933;27;20283;-69
2022/01/21 04:03:32;;;;;;;68.35;6.63;;;;;;;;;;5112870;28;20315;-70
2022/01/21 04:06:01;;;;;;;61.40;4.82;;;;;;;;;;5112668;28;20639;-70
2022/01/21 04:08:28;;;;;;;63.08;4.72;;;;;;;;;;5112774;28;20226;-70
2022/01/21 04:10:55;;;;;;;65.75;5.35;;;;;;;;;;5112644;28;20227;-70
2022/01/21 04:13:23;;;;;;;68.15;5.35;;;;;;;;;;5112490;28;20224;-69
2022/01/21 04:15:52;;;;;;;65.93;5.38;;;;;;;;;;5112441;28;20756;-69
2022/01/21 04:18:19;;;;;;;62.53;6.03;;;;;;;;;;5112327;28;20381;-70
2022/01/21 04:20:47;;;;;;;64.78;5.43;;;;;;;;;;5112902;28;20303;-69
2022/01/21 04:23:16;;;;;;;64.43;5.65;;;;;;;;;;5112286;28;20650;-69
2022/01/21 04:25:43;;;;;;;65.20;4.55;;;;;;;;;;5112224;28;20208;-70
2022/01/21 04:28:10;;;;;;;66.93;6.20;;;;;;;;;;5112335;28;20231;-70
2022/01/21 04:30:37;;;;;;;68.80;6.00;;;;;;;;;;5112489;28;20295;-70
2022/01/21 04:33:05;;;;;;;62.70;5.57;;;;;;;;;;5112155;28;20234;-70
2022/01/21 04:35:32;;;;;;;68.05;5.63;;;;;;;;;;5112542;28;20214;-70
2022/01/21 04:38:03;;;;;;;61.00;5.65;;;;;;;;;;5112110;28;20204;-70
2022/01/21 04:40:35;;;;;;;64.53;5.65;;;;;;;;;;5112478;28;20258;-70
2022/01/21 04:48:33;;;;;;;62.30;5.40;;;;;;;;;;5111749;28;20231;-70
2022/01/21 04:51:12;;;;;;;68.05;5.88;;;;;;;;;;5112317;28;20204;-70
2022/01/21 04:53:40;;;;;;;66.72;5.57;;;;;;;;;;5112181;28;20315;-70
2022/01/21 04:56:08;;;;;;;64.28;5.60;;;;;;;;;;5112205;28;20226;-70
2022/01/21 04:58:36;;;;;;;68.65;6.10;;;;;;;;;;5111804;28;20210;-70
2022/01/21 05:01:05;;;;;;;64.45;5.45;;;;;;;;;;5112588;28;20216;-70
2022/01/21 05:03:32;;;;;;;60.88;5.03;;;;;;;;;;5116218;28;20224;-70
2022/01/21 05:06:00;;;;;;;64.18;6.07;;;;;;;;;;5116090;28;20200;-69
2022/01/21 05:08:31;;;;;;;65.50;5.85;;;;;;;;;;5115362;28;20749;-69
2022/01/21 05:11:00;;;;;;;64.50;6.07;;;;;;;;;;5116056;28;20299;-69
2022/01/21 05:13:36;;;;;;;62.92;5.32;;;;;;;;;;5115823;28;20258;-69
2022/01/21 05:16:07;;;;;;;65.05;5.50;;;;;;;;;;5115815;28;20277;-69
2022/01/21 05:18:34;;;;;;;64.88;6.45;;;;;;;;;;5115645;28;20251;-69
2022/01/21 05:21:01;;;;;;;61.60;5.45;;;;;;;;;;5115895;28;20205;-69
2022/01/21 05:23:29;;;;;;;61.80;6.30;;;;;;;;;;5115522;28;20260;-70
2022/01/21 05:25:56;;;;;;;66.80;6.03;;;;;;;;;;5115535;28;20637;-69
2022/01/21 05:28:23;;;;;;;62.95;6.53;;;;;;;;;;5115149;28;20694;-69
2022/01/21 05:30:52;;;;;;;72.28;7.43;;;;;;;;;;5115960;28;20209;-69
2022/01/21 05:33:19;;;;;;;62.40;6.32;;;;;;;;;;5115412;28;20314;-69
2022/01/21 05:35:46;;;;;;;70.70;6.80;;;;;;;;;;5115526;28;20207;-69
2022/01/21 05:38:13;;;;;;;68.65;5.40;;;;;;;;;;5115143;28;20294;-69
2022/01/21 05:40:42;;;;;;;63.67;5.97;;;;;;;;;;5115208;28;20204;-69
2022/01/21 05:43:10;;;;;;;67.88;6.63;;;;;;;;;;5115047;28;20231;-70
2022/01/21 05:48:23;;;;;;;70.82;6.70;;;;;;;;;;5115084;28;20337;-69
2022/01/21 05:50:50;;;;;;;65.30;4.93;;;;;;;;;;5115102;28;20204;-69
2022/01/21 05:53:17;;;;;;;60.70;5.80;;;;;;;;;;5114979;28;20315;-70
2022/01/21 05:55:44;;;;;;;61.13;6.22;;;;;;;;;;5115040;28;20248;-69
2022/01/21 05:58:13;;;;;;;65.97;6.18;;;;;;;;;;5114852;28;20239;-70
2022/01/21 06:00:40;;;;;;;66.60;6.20;;;;;;;;;;5115203;28;20200;-70
2022/01/21 06:03:07;;;;;;;61.00;5.63;;;;;;;;;;5114794;28;20225;-69
2022/01/21 06:05:36;;;;;;;62.92;5.25;;;;;;;;;;5115102;27;20204;-70
2022/01/21 06:08:03;;;;;;;64.78;6.10;;;;;;;;;;5115079;28;20258;-70
2022/01/21 06:10:31;;;;;;;62.03;5.82;;;;;;;;;;5114838;28;20244;-69
2022/01/21 06:12:59;;;;;;;63.22;6.20;;;;;;;;;;5113791;28;20259;-70
2022/01/21 06:15:26;;;;;;;61.25;5.22;;;;;;;;;;5114761;28;20204;-70
2022/01/21 06:17:53;;;;;;;62.03;6.03;;;;;;;;;;5114344;28;20219;-69
2022/01/21 06:20:21;;;;;;;68.43;8.50;;;;;;;;;;5114472;28;20291;-70
2022/01/21 06:22:50;;;;;;;71.40;7.75;;;;;;;;;;5114564;28;20231;-70
2022/01/21 06:25:17;;;;;;;61.95;5.80;;;;;;;;;;5114669;28;20232;-70
2022/01/21 06:27:45;;;;;;;67.85;6.05;;;;;;;;;;5114295;27;20206;-70
2022/01/21 06:30:13;;;;;;;65.68;6.05;;;;;;;;;;5114641;28;20324;-70
2022/01/21 06:32:40;;;;;;;64.20;5.35;;;;;;;;;;5114104;28;20224;-70
2022/01/21 06:35:08;;;;;;;62.92;5.78;;;;;;;;;;5114246;28;20295;-70
2022/01/21 06:37:35;;;;;;;62.20;5.88;;;;;;;;;;5113917;28;20204;-70
2022/01/21 06:40:04;;;;;;;69.57;6.10;;;;;;;;;;5114524;28;20222;-70
2022/01/21 06:42:31;;;;;;;62.80;5.18;;;;;;;;;;5113985;28;20315;-70
2022/01/21 06:45:00;;;;;;;63.90;5.85;;;;;;;;;;5114214;28;20294;-70
2022/01/21 06:47:27;;;;;;;65.05;6.10;;;;;;;;;;5113775;28;20619;-70
2022/01/21 06:49:58;;;;;;;64.45;5.10;;;;;;;;;;5114446;28;20224;-70
2022/01/21 06:52:26;;;;;;;63.92;5.22;;;;;;;;;;5113811;28;20228;-70
2022/01/21 06:54:53;;;;;;;72.88;5.65;;;;;;;;;;5114279;28;20684;-70
2022/01/21 06:57:21;;;;;;;67.40;6.35;;;;;;;;;;5114002;28;20204;-70
2022/01/21 06:59:48;;;;;;;62.38;5.35;;;;;;;;;;5113973;28;20690;-70
2022/01/21 07:02:18;;;;;;;63.40;5.80;;;;;;;;;;5116055;28;20297;-71
2022/01/21 07:04:45;;;;;;;64.55;6.25;;;;;;;;;;5115623;28;20214;-70
2022/01/21 07:07:12;;;;;;;67.40;5.40;;;;;;;;;;5113427;28;20222;-70
2022/01/21 07:09:40;;;;;;;70.53;7.18;;;;;;;;;;5125428;28;20246;-70
2022/01/21 07:12:07;;;;;;;61.80;5.93;;;;;;;;;;5134859;28;20231;-69
2022/01/21 07:14:36;;;;;;;66.72;5.80;;;;;;;;;;5134433;28;20272;-70
2022/01/21 07:17:03;;;;;;;65.35;6.45;;;;;;;;;;5136995;28;20209;-70
2022/01/21 07:19:30;;;;;;;68.85;5.75;;;;;;;;;;5136913;28;20231;-70
2022/01/21 07:21:58;;;;;;;66.05;5.80;;;;;;;;;;5137385;28;20236;-69
2022/01/21 07:24:25;;;;;;;63.65;6.00;;;;;;;;;;5137072;28;20204;-70
2022/01/21 07:26:52;;;;;;;64.50;6.25;;;;;;;;;;5137459;28;20223;-70
2022/01/21 07:29:19;;;;;;;62.90;6.38;;;;;;;;;;5137362;28;20212;-70
2022/01/21 07:31:51;;;;;;;66.88;6.35;;;;;;;;;;5137564;28;20300;-70
2022/01/21 07:34:18;;;;;;;62.92;6.00;;;;;;;;;;5136483;28;20268;-70
2022/01/21 07:36:45;;;;;;;66.32;6.00;;;;;;;;;;5136503;28;20188;-70
2022/01/21 07:39:12;;;;;;;64.35;6.28;;;;;;;;;;5135643;28;20268;-71
2022/01/21 07:41:40;;;;;;;66.35;6.40;;;;;;;;;;5137819;28;20226;-70
2022/01/21 07:44:07;;;;;;;70.90;6.40;;;;;;;;;;5137127;28;20215;-71
2022/01/21 07:46:34;;;;;;;65.15;6.57;;;;;;;;;;5137121;28;20207;-70
2022/01/21 07:49:02;;;;;;;66.57;6.07;;;;;;;;;;5137134;28;20207;-71
2022/01/21 07:51:30;;;;;;;64.68;6.03;;;;;;;;;;5137818;28;20260;-71
2022/01/21 07:53:57;;;;;;;65.05;7.35;;;;;;;;;;5137350;28;20231;-71
2022/01/21 07:56:24;;;;;;;63.03;6.90;;;;;;;;;;5137929;28;20188;-70
2022/01/21 07:58:51;;;;;;;70.53;5.97;;;;;;;;;;5137158;28;20192;-70
2022/01/21 08:01:18;;;;;;;65.75;6.22;;;;;;;;;;5135020;28;20231;-70
2022/01/21 08:03:46;;;;;;;67.50;7.15;;;;;;;;;;5122873;28;20327;-70
2022/01/21 08:06:14;;;;;;;62.60;5.95;;;;;;;;;;5114086;28;20691;-72
2022/01/21 08:08:42;;;;;;;63.85;6.57;;;;;;;;;;5112891;28;20739;-71
2022/01/21 08:11:09;;;;;;;67.15;6.57;;;;;;;;;;5113354;28;20667;-70
2022/01/21 08:13:36;;;;;;;65.82;6.85;;;;;;;;;;5113157;28;20234;-70
2022/01/21 08:16:03;;;;;;;63.83;6.35;;;;;;;;;;5113023;27;20201;-70
2022/01/21 08:18:30;;;;;;;60.83;4.97;;;;;;;;;;5112585;28;20737;-70
2022/01/21 08:20:58;;;;;;;68.38;6.38;;;;;;;;;;5113030;28;20204;-71
2022/01/21 08:23:26;;;;;;;66.93;6.47;;;;;;;;;;5112772;28;20738;-70
2022/01/21 08:25:53;;;;;;;63.55;6.63;;;;;;;;;;5113095;28;20208;-70
2022/01/21 08:28:20;;;;;;;62.95;6.40;;;;;;;;;;5116413;28;20208;-70
2022/01/21 08:30:48;;;;;;;64.60;6.68;;;;;;;;;;5112682;28;20314;-70
2022/01/21 08:33:15;;;;;;;68.68;6.63;;;;;;;;;;5120330;28;20227;-70
2022/01/21 08:35:42;;;;;;;62.05;5.63;;;;;;;;;;5128339;28;20240;-70
2022/01/21 08:38:09;;;;;;;69.20;7.22;;;;;;;;;;5132243;28;20290;-71
2022/01/21 08:40:38;;;;;;;62.42;6.30;;;;;;;;;;5125009;28;20204;-71
2022/01/21 08:43:05;;;;;;;62.85;6.70;;;;;;;;;;5126061;28;20266;-70
2022/01/21 08:45:32;;;;;;;61.85;6.38;;;;;;;;;;5118992;28;20404;-70
2022/01/21 08:47:59;;;;;;;69.13;6.20;;;;;;;;;;5114793;28;20203;-70
2022/01/21 08:50:28;;;;;;;66.97;7.03;;;;;;;;;;5112856;28;20227;-70
2022/01/21 08:53:07;;;;;;;67.72;6.32;;;;;;;;;;5112467;28;20224;-70
2022/01/21 08:55:34;;;;;;;66.28;7.10;;;;;;;;;;5112183;28;20753;-70
2022/01/21 08:58:03;;;;;;;63.53;6.35;;;;;;;;;;5113695;28;20211;-71
2022/01/21 09:00:30;;;;;;;63.60;6.38;;;;;;;;;;5112183;28;20676;-71
2022/01/21 09:02:57;;;;;;;64.53;6.60;;;;;;;;;;5111840;28;20220;-70
2022/01/21 09:05:25;;;;;;;67.80;6.53;;;;;;;;;;5112002;28;20204;-71
2022/01/21 09:07:52;;;;;;;63.88;5.72;;;;;;;;;;5111798;28;20248;-70
2022/01/21 09:10:19;;;;;;;64.35;5.95;;;;;;;;;;5112028;28;20234;-70
2022/01/21 09:12:46;;;;;;;64.60;6.32;;;;;;;;;;5112018;28;20227;-70
2022/01/21 09:15:15;;;;;;;70.25;7.78;;;;;;;;;;5112524;28;20626;-70
2022/01/21 09:17:42;;;;;;;67.75;6.60;;;;;;;;;;5112031;28;20235;-70
2022/01/21 09:20:09;;;;;;;73.38;6.90;;;;;;;;;;5112129;28;20295;-70
2022/01/21 09:22:37;;;;;;;79.10;7.90;;;;;;;;;;5111996;28;20312;-70
2022/01/21 09:25:04;;;;;;;62.47;6.03;;;;;;;;;;5112086;28;20236;-69
2022/01/21 09:27:31;;;;;;;64.95;6.75;;;;;;;;;;5111772;28;20280;-69
2022/01/21 09:29:59;;;;;;;68.80;7.07;;;;;;;;;;5112699;28;20232;-70
2022/01/21 09:32:27;;;;;;;69.20;7.65;;;;;;;;;;5112306;28;20315;-69
2022/01/21 09:34:54;;;;;;;65.25;6.32;;;;;;;;;;5112120;28;20212;-70
2022/01/21 09:37:21;;;;;;;69.43;7.00;;;;;;;;;;5111844;28;20215;-70
2022/01/21 09:39:48;;;;;;;87.47;8.30;;;;;;;;;;5112583;28;20291;-71
2022/01/21 09:42:16;;;;;;;85.63;8.40;;;;;;;;;;5112502;28;20319;-72
2022/01/21 09:44:45;;;;;;;70.07;7.95;;;;;;;;;;5112731;28;20204;-72
2022/01/21 09:47:15;;;;;;;72.72;7.97;;;;;;;;;;5111936;28;20253;-71
2022/01/21 09:49:45;;;;;;;67.50;6.68;;;;;;;;;;5114763;28;20204;-70
2022/01/21 09:52:13;;;;;;;62.42;5.93;;;;;;;;;;5115268;27;20298;-70
2022/01/21 09:54:46;;;;;;;71.40;6.55;;;;;;;;;;5115807;28;20240;-70
2022/01/21 09:57:17;;;;;;;67.13;6.50;;;;;;;;;;5115149;28;20615;-70
2022/01/21 09:59:44;;;;;;;65.90;6.18;;;;;;;;;;5115498;27;20247;-70
2022/01/21 10:02:13;;;;;;;65.30;6.35;;;;;;;;;;5115997;28;20307;-69
2022/01/21 10:04:42;;;;;;;73.25;7.90;;;;;;;;;;5116584;28;20291;-71
2022/01/21 10:07:11;;;;;;;65.22;6.43;;;;;;;;;;5124482;28;20287;-70
2022/01/21 10:09:39;;;;;;;63.42;6.43;;;;;;;;;;5135978;28;20238;-70
2022/01/21 10:12:06;;;;;;;65.88;6.03;;;;;;;;;;5136772;28;20220;-70
2022/01/21 10:14:33;;;;;;;62.75;6.25;;;;;;;;;;5136152;28;20204;-70
2022/01/21 10:17:01;;;;;;;62.50;6.13;;;;;;;;;;5135960;28;20228;-71
2022/01/21 10:19:29;;;;;;;69.00;6.40;;;;;;;;;;5136195;28;20184;-71
2022/01/21 10:22:01;;;;;;;62.90;6.07;;;;;;;;;;5136408;28;20200;-71
2022/01/21 10:24:29;;;;;;;65.30;5.97;;;;;;;;;;5121303;27;20208;-71
2022/01/21 10:26:57;;;;;;;66.70;6.53;;;;;;;;;;5114489;28;20222;-71
2022/01/21 10:29:25;;;;;;;65.80;6.55;;;;;;;;;;5114162;28;20211;-70
2022/01/21 10:31:53;;;;;;;72.82;6.88;;;;;;;;;;5109536;28;20228;-69
2022/01/21 10:34:25;;;;;;;64.30;5.88;;;;;;;;;;5114113;28;20291;-69
2022/01/21 10:36:56;;;;;;;64.82;5.60;;;;;;;;;;5114426;28;20236;-70
2022/01/21 10:39:30;;;;;;;75.20;6.68;;;;;;;;;;5114120;28;20204;-69
2022/01/21 10:41:59;;;;;;;64.55;5.82;;;;;;;;;;5114213;28;20251;-70
2022/01/21 10:44:29;;;;;;;61.75;5.18;;;;;;;;;;5113961;28;20703;-69
2022/01/21 10:47:04;;;;;;;75.32;6.65;;;;;;;;;;5113904;28;20212;-69
2022/01/21 10:49:31;;;;;;;68.72;6.30;;;;;;;;;;5114095;27;20583;-68
2022/01/21 10:51:58;;;;;;;65.00;6.13;;;;;;;;;;5113647;28;20323;-70
2022/01/21 10:54:26;;;;;;;63.50;5.78;;;;;;;;;;5113335;28;20684;-69
2022/01/21 10:57:09;;;;;;;65.18;6.30;;;;;;;;;;5113673;28;20230;-69
2022/01/21 10:59:46;;;;;;;60.92;5.60;;;;;;;;;;5113195;28;20214;-69
2022/01/21 11:02:14;;;;;;;63.83;6.10;;;;;;;;;;5113754;28;20216;-69
2022/01/21 11:04:42;;;;;;;65.53;7.30;;;;;;;;;;5113795;28;20204;-69
2022/01/21 11:07:12;;;;;;;62.58;5.07;;;;;;;;;;5113451;27;20219;-69
2022/01/21 11:09:39;;;;;;;63.35;6.32;;;;;;;;;;5113429;28;20204;-69
2022/01/21 11:12:11;;;;;;;65.65;5.85;;;;;;;;;;5113550;28;20319;-71
2022/01/21 11:14:40;;;;;;;68.78;5.72;;;;;;;;;;5113547;28;20204;-69
2022/01/21 11:17:08;;;;;;;66.68;6.40;;;;;;;;;;5113245;28;20303;-71
2022/01/21 11:19:36;;;;;;;70.45;6.68;;;;;;;;;;5111324;28;20299;-71
2022/01/21 11:22:04;;;;;;;63.70;6.35;;;;;;;;;;5112984;28;20269;-71
2022/01/21 11:24:32;;;;;;;62.70;5.75;;;;;;;;;;5113213;28;20212;-71
2022/01/21 11:27:11;;;;;;;64.20;5.45;;;;;;;;;;5113326;28;20219;-71
2022/01/21 11:29:39;;;;;;;62.53;5.30;;;;;;;;;;5113246;28;20204;-71
2022/01/21 11:32:06;;;;;;;67.88;7.20;;;;;;;;;;5113721;28;20232;-71
2022/01/21 11:34:34;;;;;;;63.70;6.20;;;;;;;;;;5113144;28;20291;-71
2022/01/21 11:37:01;;;;;;;73.00;6.05;;;;;;;;;;5112910;28;20215;-71
2022/01/21 11:39:29;;;;;;;64.50;5.63;;;;;;;;;;5112874;28;20579;-71
2022/01/21 11:41:57;;;;;;;65.65;5.50;;;;;;;;;;5112985;28;20216;-71
2022/01/21 11:44:27;;;;;;;63.42;5.57;;;;;;;;;;5112901;28;20242;-71
2022/01/21 11:47:03;;;;;;;68.47;7.18;;;;;;;;;;5112932;28;20796;-71
2022/01/21 11:49:32;;;;;;;62.60;5.55;;;;;;;;;;5111745;28;20207;-71
2022/01/21 11:52:09;;;;;;;65.53;4.97;;;;;;;;;;5112453;28;20235;-71
2022/01/21 11:54:37;;;;;;;72.15;5.60;;;;;;;;;;5112804;28;20238;-71
2022/01/21 11:57:06;;;;;;;65.35;5.80;;;;;;;;;;5112663;28;20620;-71
2022/01/21 11:59:41;;;;;;;67.28;5.50;;;;;;;;;;5112672;28;20204;-71
2022/01/21 12:02:19;;;;;;;69.45;6.13;;;;;;;;;;5113376;28;20222;-70
2022/01/21 12:04:47;;;;;;;64.65;5.35;;;;;;;;;;5112989;28;20257;-71
2022/01/21 12:07:36;;;;;;;65.35;5.68;;;;;;;;;;5112410;28;20212;-70
2022/01/21 12:10:05;;;;;;;63.60;5.93;;;;;;;;;;5112096;28;20207;-71
2022/01/21 12:13:01;;;;;;;63.45;6.03;;;;;;;;;;5112192;28;20228;-71
2022/01/21 12:15:54;;;;;;;64.78;5.47;;;;;;;;;;5112984;28;20396;-71
2022/01/21 12:18:37;;;;;;;69.25;6.80;;;;;;;;;;5112823;28;20259;-71
2022/01/21 12:21:06;;;;;;;64.07;5.05;;;;;;;;;;5112462;28;20208;-70
2022/01/21 12:23:43;;;;;;;64.95;5.20;;;;;;;;;;5112377;27;20315;-70
2022/01/21 12:26:17;;;;;;;66.20;5.15;;;;;;;;;;5112003;28;20299;-71
2022/01/21 12:28:44;;;;;;;67.93;5.65;;;;;;;;;;5111567;28;20204;-70
2022/01/21 12:31:14;;;;;;;62.15;5.07;;;;;;;;;;5111461;28;20236;-70
2022/01/21 12:34:03;;;;;;;66.10;4.90;;;;;;;;;;5112181;28;20225;-70
2022/01/21 12:36:32;;;;;;;67.93;4.75;;;;;;;;;;5112006;28;20233;-71
2022/01/21 12:39:09;;;;;;;65.60;5.97;;;;;;;;;;5111839;28;20203;-71
2022/01/21 12:41:38;;;;;;;63.63;5.18;;;;;;;;;;5111348;28;20592;-71
2022/01/21 12:44:06;;;;;;;69.35;5.70;;;;;;;;;;5110987;28;20212;-71
2022/01/21 12:46:36;;;;;;;63.63;5.25;;;;;;;;;;5111051;28;20638;-71
2022/01/21 12:49:23;;;;;;;62.20;4.68;;;;;;;;;;5112021;28;20250;-71
2022/01/21 12:52:10;;;;;;;65.07;4.97;;;;;;;;;;5111423;28;20227;-71
2022/01/21 12:57:26;;;;;;;71.95;5.22;;;;;;;;;;5112010;28;20195;-71
2022/01/21 12:59:55;;;;;;;66.00;6.85;;;;;;;;;;5112087;28;20303;-71
2022/01/21 13:02:24;;;;;;;71.47;6.50;;;;;;;;;;5111862;28;20227;-71
2022/01/21 13:04:56;;;;;;;66.38;5.18;;;;;;;;;;5112128;28;20295;-71
2022/01/21 13:07:28;;;;;;;68.82;5.00;;;;;;;;;;5111986;28;20638;-70
2022/01/21 13:10:08;;;;;;;61.70;4.63;;;;;;;;;;5112225;28;20209;-69
2022/01/21 13:12:58;;;;;;;66.28;5.57;;;;;;;;;;5111714;28;20311;-71
2022/01/21 13:15:26;;;;;;;64.05;5.10;;;;;;;;;;5112096;28;20243;-72
2022/01/21 13:18:01;;;;;;;63.50;5.20;;;;;;;;;;5111817;28;20210;-71
2022/01/21 13:20:31;;;;;;;62.63;5.47;;;;;;;;;;5111980;28;20223;-71
2022/01/21 13:22:58;;;;;;;72.85;6.30;;;;;;;;;;5113883;28;20603;-71
2022/01/21 13:25:26;;;;;;;64.63;5.22;;;;;;;;;;5116019;28;20647;-71
2022/01/21 13:27:54;;;;;;;63.25;4.95;;;;;;;;;;5115563;28;20251;-71
2022/01/21 13:30:23;;;;;;;62.67;4.82;;;;;;;;;;5115820;28;20564;-71
2022/01/21 13:32:58;;;;;;;62.35;4.05;;;;;;;;;;5115425;28;20238;-71
2022/01/21 13:35:27;;;;;;;64.15;5.32;;;;;;;;;;5115559;28;20214;-71
2022/01/21 13:38:09;;;;;;;64.60;4.95;;;;;;;;;;5115246;28;20216;-71
2022/01/21 13:40:40;;;;;;;64.63;4.65;;;;;;;;;;5115664;28;20316;-71
2022/01/21 13:43:12;;;;;;;65.65;4.80;;;;;;;;;;5115517;28;20232;-71
2022/01/21 13:45:40;;;;;;;67.50;4.80;;;;;;;;;;5115407;28;20200;-71
2022/01/21 13:48:09;;;;;;;62.47;5.45;;;;;;;;;;5115050;28;20200;-71
2022/01/21 13:50:43;;;;;;;62.42;5.20;;;;;;;;;;5115521;28;20204;-71
2022/01/21 13:53:11;;;;;;;66.63;4.32;;;;;;;;;;5114924;28;20230;-70
2022/01/21 13:55:39;;;;;;;66.28;4.38;;;;;;;;;;5115202;28;20299;-70
2022/01/21 13:58:08;;;;;;;62.03;4.43;;;;;;;;;;5114742;28;20543;-70
2022/01/21 14:00:36;;;;;;;63.55;4.18;;;;;;;;;;5114988;28;20295;-70
2022/01/21 14:03:18;;;;;;;67.40;4.43;;;;;;;;;;5115189;28;20259;-70
2022/01/21 14:05:51;;;;;;;62.38;4.57;;;;;;;;;;5115078;28;20210;-70
2022/01/21 14:08:19;;;;;;;60.25;3.90;;;;;;;;;;5114688;28;20564;-71
2022/01/21 14:10:47;;;;;;;61.33;4.05;;;;;;;;;;5114901;28;20211;-71
2022/01/21 14:13:14;;;;;;;60.33;3.90;;;;;;;;;;5114602;28;20224;-71
2022/01/21 14:15:41;;;;;;;62.90;4.32;;;;;;;;;;5115107;28;20212;-71
2022/01/21 14:18:09;;;;;;;61.08;4.47;;;;;;;;;;5114509;28;20295;-71
2022/01/21 14:20:38;;;;;;;62.40;4.50;;;;;;;;;;5114719;28;20294;-71
2022/01/21 14:23:07;;;;;;;64.97;4.90;;;;;;;;;;5114516;28;20220;-71
2022/01/21 14:25:34;;;;;;;63.22;4.97;;;;;;;;;;5114469;28;20227;-70
2022/01/21 14:28:01;;;;;;;71.10;5.32;;;;;;;;;;5114181;28;20778;-71
2022/01/21 14:30:28;;;;;;;64.25;4.15;;;;;;;;;;5114599;28;20631;-71
2022/01/21 14:32:57;;;;;;;59.90;3.95;;;;;;;;;;5114423;28;20704;-71
2022/01/21 14:35:28;;;;;;;62.75;5.05;;;;;;;;;;5113550;28;20759;-71
2022/01/21 14:37:57;;;;;;;64.95;4.60;;;;;;;;;;5114030;28;20694;-71
2022/01/21 14:40:26;;;;;;;64.90;4.78;;;;;;;;;;5114168;28;20208;-71
2022/01/21 14:43:07;;;;;;;61.40;4.75;;;;;;;;;;5114250;28;20712;-70
2022/01/21 14:45:34;;;;;;;67.70;4.72;;;;;;;;;;5114662;28;20213;-70
2022/01/21 14:48:12;;;;;;;60.45;4.13;;;;;;;;;;5111920;27;20200;-70
2022/01/21 14:50:40;;;;;;;68.25;4.70;;;;;;;;;;5113918;28;20207;-70
2022/01/21 14:53:08;;;;;;;62.15;4.65;;;;;;;;;;5114250;28;20323;-70
2022/01/21 14:55:39;;;;;;;69.75;4.80;;;;;;;;;;5111849;27;20615;-70
2022/01/21 14:58:11;;;;;;;65.80;6.05;;;;;;;;;;5113403;28;20690;-70
2022/01/21 15:00:40;;;;;;;61.40;5.03;;;;;;;;;;5113451;27;20200;-70
2022/01/21 15:03:11;;;;;;;62.92;4.78;;;;;;;;;;5113301;28;20224;-71
2022/01/21 15:05:40;;;;;;;62.17;4.40;;;;;;;;;;5113926;28;20563;-71
2022/01/21 15:08:08;;;;;;;63.70;4.40;;;;;;;;;;5113115;28;20277;-71
2022/01/21 15:10:40;;;;;;;68.00;4.85;;;;;;;;;;5113696;28;20269;-71
2022/01/21 15:16:10;;;;;;;61.85;4.25;;;;;;;;;;5113504;28;20581;-71
2022/01/21 15:18:37;;;;;;;60.60;3.70;;;;;;;;;;5113269;28;20212;-71
2022/01/21 15:21:05;;;;;;;60.40;4.43;;;;;;;;;;5113408;28;20295;-70
2022/01/21 15:23:32;;;;;;;60.28;4.20;;;;;;;;;;5113262;28;20227;-71